Time;durP1;ratioP1;P1;durP2;ratioP2;P2;SDS_P1;SDS_P2;PMS_P1;PMS_P2;Temp;Humidity;BMP_temperature;BMP_pressure;BME280_temperature;BME280_humidity;BME280_pressure;Samples;Min_cycle;Max_cycle;Signal;HPM_P1;HPM_P2
2022/04/17 00:00:22;;;;;;;5.53;5.03;;;8.60;73.40;;;;;;5116158;28;20288;-67
2022/04/17 00:02:48;;;;;;;5.88;5.28;;;8.60;73.20;;;;;;5116123;28;20223;-67
2022/04/17 00:05:15;;;;;;;5.35;4.85;;;8.60;73.80;;;;;;5115893;28;20292;-68
2022/04/17 00:07:43;;;;;;;5.30;4.85;;;8.60;74.00;;;;;;5116290;28;20193;-67
2022/04/17 00:10:09;;;;;;;5.47;4.70;;;8.50;74.50;;;;;;5115873;28;20205;-68
2022/04/17 00:12:36;;;;;;;5.80;5.18;;;8.50;74.30;;;;;;5115648;28;20256;-67
2022/04/17 00:15:06;;;;;;;5.75;5.20;;;8.50;74.30;;;;;;5115737;28;20207;-67
2022/04/17 00:17:33;;;;;;;5.90;5.20;;;8.40;74.10;;;;;;5115567;28;20217;-67
2022/04/17 00:20:00;;;;;;;5.05;4.65;;;8.30;74.00;;;;;;5115683;28;20683;-68
2022/04/17 00:22:27;;;;;;;6.20;5.60;;;8.30;74.70;;;;;;5115648;28;20312;-67
2022/04/17 00:24:54;;;;;;;5.38;4.78;;;8.40;75.30;;;;;;5115260;28;20667;-67
2022/04/17 00:27:21;;;;;;;9.07;4.80;;;8.30;75.60;;;;;;5115627;28;20240;-67
2022/04/17 00:29:48;;;;;;;5.70;5.00;;;8.30;75.80;;;;;;5115577;28;20299;-67
2022/04/17 00:32:16;;;;;;;4.82;4.32;;;8.20;75.10;;;;;;5115555;28;20313;-68
2022/04/17 00:34:44;;;;;;;5.20;4.70;;;8.20;76.00;;;;;;5115315;28;20205;-67
2022/04/17 00:37:11;;;;;;;4.82;4.47;;;8.10;76.20;;;;;;5115341;28;20316;-67
2022/04/17 00:39:39;;;;;;;4.88;4.47;;;8.20;76.40;;;;;;5115301;28;20323;-67
2022/04/17 00:42:07;;;;;;;5.15;4.75;;;8.20;76.30;;;;;;5115170;28;20226;-67
2022/04/17 00:44:35;;;;;;;6.03;4.10;;;8.20;76.30;;;;;;5115126;28;20205;-67
2022/04/17 00:47:02;;;;;;;7.10;4.90;;;8.10;77.20;;;;;;5115437;28;20208;-67
2022/04/17 00:49:30;;;;;;;5.30;4.80;;;8.10;76.70;;;;;;5115185;27;20206;-67
2022/04/17 00:51:57;;;;;;;5.20;4.57;;;8.10;76.20;;;;;;5114750;28;20243;-67
2022/04/17 00:54:25;;;;;;;5.25;4.75;;;8.10;77.20;;;;;;5114684;28;20207;-67
2022/04/17 00:56:52;;;;;;;5.00;4.50;;;8.10;76.70;;;;;;5114989;28;20377;-67
2022/04/17 00:59:22;;;;;;;5.32;4.82;;;8.00;77.50;;;;;;5115053;28;20197;-67
2022/04/17 01:01:49;;;;;;;6.00;5.10;;;8.00;76.70;;;;;;5114761;28;20225;-67
2022/04/17 01:04:16;;;;;;;5.85;5.25;;;7.90;77.20;;;;;;5114795;27;20208;-67
2022/04/17 01:06:44;;;;;;;6.13;5.50;;;7.90;77.80;;;;;;5114778;28;20680;-67
2022/04/17 01:09:11;;;;;;;6.00;5.40;;;7.80;78.10;;;;;;5114906;28;20212;-67
2022/04/17 01:11:41;;;;;;;5.57;5.03;;;7.70;78.40;;;;;;5114628;28;20221;-67
2022/04/17 01:14:09;;;;;;;5.78;5.13;;;7.70;78.60;;;;;;5114732;28;20296;-68
2022/04/17 01:16:37;;;;;;;7.53;5.10;;;7.60;78.30;;;;;;5114844;28;20218;-67
2022/04/17 01:19:11;;;;;;;5.88;5.28;;;7.60;78.60;;;;;;5114779;28;20205;-68
2022/04/17 01:21:40;;;;;;;6.07;5.50;;;7.60;79.00;;;;;;5114672;28;20221;-67
2022/04/17 01:26:57;;;;;;;6.22;5.00;;;7.60;79.90;;;;;;5114749;28;20319;-68
2022/04/17 01:29:24;;;;;;;6.00;5.40;;;7.50;79.80;;;;;;5114365;28;20221;-68
2022/04/17 01:31:50;;;;;;;6.55;5.72;;;7.50;80.40;;;;;;5114311;28;20221;-67
2022/04/17 01:34:18;;;;;;;5.78;5.28;;;7.50;80.50;;;;;;5114287;27;20202;-67
2022/04/17 01:36:48;;;;;;;6.18;5.60;;;7.50;80.40;;;;;;5114102;28;20311;-67
2022/04/17 01:39:14;;;;;;;6.22;5.63;;;7.60;80.60;;;;;;5114370;28;20330;-67
2022/04/17 01:41:42;;;;;;;5.68;5.18;;;7.60;80.10;;;;;;5114231;28;20221;-67
2022/04/17 01:44:09;;;;;;;6.40;5.80;;;7.50;82.00;;;;;;5113849;28;20663;-67
2022/04/17 01:46:36;;;;;;;5.85;5.30;;;7.50;82.10;;;;;;5114029;28;20207;-67
2022/04/17 01:49:04;;;;;;;7.07;6.13;;;7.40;81.30;;;;;;5114693;28;20213;-67
2022/04/17 01:51:37;;;;;;;6.70;6.00;;;7.40;82.10;;;;;;5113985;28;20225;-68
2022/04/17 01:54:06;;;;;;;6.68;6.07;;;7.30;82.60;;;;;;5113739;28;20700;-67
2022/04/17 01:56:33;;;;;;;6.35;5.75;;;7.20;82.60;;;;;;5114006;28;20232;-67
2022/04/17 01:58:59;;;;;;;6.75;5.95;;;7.20;82.70;;;;;;5114364;28;20202;-67
2022/04/17 02:01:26;;;;;;;6.72;6.00;;;7.20;82.90;;;;;;5113806;28;20257;-67
2022/04/17 02:03:53;;;;;;;8.75;5.85;;;7.10;82.70;;;;;;5113273;28;20201;-67
2022/04/17 02:06:20;;;;;;;7.75;6.40;;;7.10;83.10;;;;;;5114063;28;20627;-67
2022/04/17 02:08:47;;;;;;;7.13;6.40;;;7.10;83.00;;;;;;5114040;28;20308;-67
2022/04/17 02:11:15;;;;;;;6.53;5.88;;;7.10;83.20;;;;;;5113875;28;20234;-67
2022/04/17 02:13:42;;;;;;;6.13;5.53;;;7.00;83.70;;;;;;5113824;28;20232;-67
2022/04/17 02:16:09;;;;;;;6.55;5.95;;;7.00;83.50;;;;;;5113626;28;20250;-66
2022/04/17 02:18:36;;;;;;;6.25;5.65;;;7.00;84.10;;;;;;5113908;28;20207;-67
2022/04/17 02:21:03;;;;;;;6.63;5.90;;;7.10;84.30;;;;;;5113732;28;20561;-67
2022/04/17 02:23:29;;;;;;;6.57;5.97;;;7.10;84.70;;;;;;5113718;28;20209;-67
2022/04/17 02:25:56;;;;;;;8.80;6.22;;;7.00;84.80;;;;;;5113773;28;20308;-66
2022/04/17 02:28:24;;;;;;;7.10;6.28;;;7.00;84.70;;;;;;5113700;28;20286;-67
2022/04/17 02:30:51;;;;;;;6.75;6.00;;;6.90;84.60;;;;;;5113841;28;20205;-67
2022/04/17 02:33:18;;;;;;;6.70;6.10;;;6.90;84.40;;;;;;5113659;28;20225;-67
2022/04/17 02:35:45;;;;;;;9.35;6.80;;;6.90;85.00;;;;;;5114151;28;20292;-66
2022/04/17 02:38:14;;;;;;;6.90;6.30;;;6.80;84.70;;;;;;5113615;28;20221;-67
2022/04/17 02:40:42;;;;;;;8.00;7.20;;;6.80;85.00;;;;;;5113711;28;20566;-67
2022/04/17 02:43:09;;;;;;;7.65;6.95;;;6.70;85.80;;;;;;5114208;28;20229;-67
2022/04/17 02:45:37;;;;;;;7.57;6.85;;;6.70;85.70;;;;;;5113529;28;20674;-67
2022/04/17 02:48:04;;;;;;;7.05;6.35;;;6.70;85.80;;;;;;5113577;28;20193;-66
2022/04/17 02:50:31;;;;;;;8.23;6.93;;;6.70;85.70;;;;;;5113561;28;20208;-66
2022/04/17 02:52:58;;;;;;;7.20;6.50;;;6.70;86.20;;;;;;5113294;28;20718;-67
2022/04/17 02:55:25;;;;;;;8.00;7.20;;;6.70;86.60;;;;;;5113605;28;20198;-66
2022/04/17 02:57:54;;;;;;;9.02;7.00;;;6.70;86.80;;;;;;5113307;28;20311;-66
2022/04/17 03:00:21;;;;;;;7.03;6.28;;;6.50;87.10;;;;;;5113585;28;20609;-66
2022/04/17 03:05:39;;;;;;;8.00;7.20;;;6.60;87.00;;;;;;5113594;28;20204;-67
2022/04/17 03:08:08;;;;;;;7.30;6.60;;;6.60;88.20;;;;;;5113493;28;20202;-67
2022/04/17 03:10:36;;;;;;;7.53;6.70;;;6.50;89.70;;;;;;5113463;28;20247;-66
2022/04/17 03:13:04;;;;;;;7.50;6.80;;;6.50;89.20;;;;;;5112927;28;20240;-67
2022/04/17 03:15:31;;;;;;;7.68;6.88;;;6.60;88.60;;;;;;5116875;28;20259;-67
2022/04/17 03:18:00;;;;;;;7.70;7.00;;;6.60;88.40;;;;;;5116933;28;20217;-67
2022/04/17 03:20:27;;;;;;;7.97;6.78;;;6.60;88.90;;;;;;5116965;28;20201;-67
2022/04/17 03:22:54;;;;;;;7.07;6.38;;;6.60;88.70;;;;;;5117418;28;20591;-67
2022/04/17 03:25:21;;;;;;;9.75;7.20;;;6.50;89.10;;;;;;5116630;28;20205;-67
2022/04/17 03:27:48;;;;;;;7.25;6.53;;;6.50;89.20;;;;;;5116885;28;20204;-66
2022/04/17 03:30:17;;;;;;;7.88;6.90;;;6.50;89.70;;;;;;5116414;28;20751;-67
2022/04/17 03:32:44;;;;;;;7.57;6.88;;;6.40;90.20;;;;;;5116464;28;20714;-66
2022/04/17 03:35:13;;;;;;;8.68;7.40;;;6.30;90.40;;;;;;5116585;28;20205;-67
2022/04/17 03:37:42;;;;;;;7.85;6.68;;;6.40;90.60;;;;;;5116397;28;20221;-67
2022/04/17 03:40:10;;;;;;;7.40;6.70;;;6.40;90.30;;;;;;5116502;28;20236;-67
2022/04/17 03:42:38;;;;;;;7.25;6.55;;;6.40;90.60;;;;;;5116460;28;20218;-67
2022/04/17 03:45:06;;;;;;;10.70;7.45;;;6.40;90.70;;;;;;5116044;28;20197;-67
2022/04/17 03:47:33;;;;;;;7.50;6.80;;;6.30;90.90;;;;;;5116421;27;20194;-66
2022/04/17 03:50:00;;;;;;;9.20;7.03;;;6.40;90.90;;;;;;5116238;28;20245;-66
2022/04/17 03:52:39;;;;;;;8.48;6.80;;;6.30;91.20;;;;;;5116301;28;20721;-67
2022/04/17 03:55:06;;;;;;;7.18;6.47;;;6.40;91.10;;;;;;5116186;28;20250;-66
2022/04/17 03:57:33;;;;;;;6.78;6.07;;;6.20;91.00;;;;;;5116165;28;20241;-66
2022/04/17 04:00:00;;;;;;;7.60;6.80;;;6.20;91.00;;;;;;5116240;28;20208;-67
2022/04/17 04:02:28;;;;;;;7.72;6.93;;;6.20;91.00;;;;;;5116175;28;20308;-66
2022/04/17 04:04:55;;;;;;;6.40;5.80;;;6.20;91.10;;;;;;5116004;28;20616;-66
2022/04/17 04:07:22;;;;;;;7.40;6.72;;;6.10;91.10;;;;;;5116023;28;20302;-66
2022/04/17 04:09:50;;;;;;;10.25;6.50;;;6.10;91.40;;;;;;5116001;27;20208;-67
2022/04/17 04:12:18;;;;;;;7.70;6.75;;;6.00;91.60;;;;;;5115671;28;20224;-67
2022/04/17 04:14:45;;;;;;;7.43;6.70;;;6.00;91.70;;;;;;5115799;28;20296;-67
2022/04/17 04:17:12;;;;;;;8.65;7.65;;;5.90;91.60;;;;;;5115675;28;20312;-66
2022/04/17 04:19:39;;;;;;;8.90;8.00;;;5.80;91.70;;;;;;5115778;28;20302;-67
2022/04/17 04:22:06;;;;;;;9.85;8.40;;;5.70;91.90;;;;;;5115603;28;20223;-66
2022/04/17 04:24:33;;;;;;;8.13;6.88;;;5.70;92.10;;;;;;5115285;28;20663;-66
2022/04/17 04:29:45;;;;;;;8.38;7.05;;;5.60;92.60;;;;;;5115755;28;20732;-67
2022/04/17 04:32:12;;;;;;;8.70;7.80;;;5.50;92.70;;;;;;5115369;28;20253;-67
2022/04/17 04:34:39;;;;;;;7.72;6.93;;;5.50;93.20;;;;;;5115457;28;20202;-66
2022/04/17 04:37:06;;;;;;;9.80;8.48;;;5.50;93.60;;;;;;5115436;28;20197;-67
2022/04/17 04:39:33;;;;;;;9.25;6.88;;;5.40;93.70;;;;;;5115195;28;20244;-67
2022/04/17 04:42:03;;;;;;;8.30;6.95;;;5.50;93.90;;;;;;5115474;28;20249;-66
2022/04/17 04:44:29;;;;;;;8.95;7.03;;;5.50;93.70;;;;;;5115437;28;20202;-66
2022/04/17 04:46:56;;;;;;;8.15;7.07;;;5.50;93.90;;;;;;5115535;28;20288;-67
2022/04/17 04:49:31;;;;;;;10.77;7.30;;;5.50;93.50;;;;;;5115472;28;20544;-67
2022/04/17 04:51:59;;;;;;;10.43;7.53;;;5.50;93.60;;;;;;5115270;28;20217;-66
2022/04/17 04:54:26;;;;;;;7.88;6.97;;;5.40;93.90;;;;;;5115109;28;20212;-67
2022/04/17 04:56:53;;;;;;;8.00;7.20;;;5.40;93.90;;;;;;5115201;28;20262;-66
2022/04/17 04:59:22;;;;;;;9.13;7.45;;;5.30;93.70;;;;;;5115049;28;20308;-67
2022/04/17 05:01:48;;;;;;;8.20;6.90;;;5.40;94.20;;;;;;5115037;28;20213;-66
2022/04/17 05:04:15;;;;;;;8.13;6.45;;;5.40;94.70;;;;;;5114786;28;20201;-66
2022/04/17 05:06:43;;;;;;;7.45;6.75;;;5.50;94.90;;;;;;5114806;28;20749;-67
2022/04/17 05:09:10;;;;;;;7.60;6.80;;;5.50;95.50;;;;;;5114891;28;20200;-67
2022/04/17 05:11:38;;;;;;;8.25;7.10;;;5.50;95.20;;;;;;5114853;28;20223;-67
2022/04/17 05:14:06;;;;;;;8.15;6.95;;;5.50;95.00;;;;;;5114383;28;20736;-67
2022/04/17 05:16:35;;;;;;;7.95;6.32;;;5.40;94.10;;;;;;5114727;28;20244;-67
2022/04/17 05:21:46;;;;;;;10.10;7.50;;;5.40;94.70;;;;;;5114427;28;20639;-66
2022/04/17 05:24:13;;;;;;;8.85;7.15;;;5.30;95.70;;;;;;5114284;28;20276;-67
2022/04/17 05:26:40;;;;;;;8.77;7.78;;;5.50;95.70;;;;;;5114642;28;20197;-67
2022/04/17 05:29:07;;;;;;;8.88;7.93;;;5.50;95.60;;;;;;5114329;27;20215;-66
2022/04/17 05:31:35;;;;;;;8.65;6.90;;;5.60;95.30;;;;;;5114448;28;20725;-66
2022/04/17 05:34:02;;;;;;;7.93;7.13;;;5.50;96.30;;;;;;5114366;28;20616;-67
2022/04/17 05:36:29;;;;;;;7.80;7.00;;;5.50;96.20;;;;;;5114209;28;20572;-67
2022/04/17 05:38:56;;;;;;;9.45;7.40;;;5.50;96.10;;;;;;5113714;28;20236;-66
2022/04/17 05:41:24;;;;;;;7.93;7.13;;;5.60;95.90;;;;;;5114244;28;20225;-67
2022/04/17 05:43:51;;;;;;;7.93;7.13;;;5.60;95.80;;;;;;5114241;28;20207;-67
2022/04/17 05:46:19;;;;;;;7.60;6.90;;;5.70;95.80;;;;;;5114114;28;20205;-67
2022/04/17 05:48:47;;;;;;;7.70;6.95;;;5.70;95.40;;;;;;5114206;28;20207;-67
2022/04/17 05:51:14;;;;;;;7.43;6.70;;;5.90;95.20;;;;;;5114162;28;20217;-67
2022/04/17 05:53:41;;;;;;;7.93;7.13;;;5.90;95.00;;;;;;5114100;28;20208;-67
2022/04/17 05:56:08;;;;;;;7.35;6.65;;;6.00;95.10;;;;;;5114341;28;20209;-66
2022/04/17 05:58:35;;;;;;;9.50;8.05;;;6.00;94.80;;;;;;5114091;28;20582;-66
2022/04/17 06:01:03;;;;;;;7.47;6.75;;;6.00;94.90;;;;;;5114073;28;20197;-66
2022/04/17 06:03:29;;;;;;;7.65;6.93;;;6.10;94.40;;;;;;5113717;28;20216;-67
2022/04/17 06:05:58;;;;;;;8.63;6.60;;;6.10;94.10;;;;;;5113903;28;20209;-66
2022/04/17 06:08:24;;;;;;;7.22;6.20;;;6.10;95.10;;;;;;5114032;28;20602;-66
2022/04/17 06:10:51;;;;;;;7.65;6.80;;;6.10;95.10;;;;;;5113994;28;20202;-66
2022/04/17 06:13:18;;;;;;;7.82;6.60;;;6.20;95.30;;;;;;5113617;28;20189;-67
2022/04/17 06:15:45;;;;;;;6.03;5.53;;;6.20;92.70;;;;;;5113834;28;20686;-67
2022/04/17 06:18:12;;;;;;;9.38;6.47;;;6.30;92.30;;;;;;5113741;28;20691;-66
2022/04/17 06:20:39;;;;;;;6.82;6.13;;;6.30;92.80;;;;;;5114252;28;20205;-67
2022/04/17 06:23:07;;;;;;;6.35;5.80;;;6.50;92.30;;;;;;5113692;28;20221;-66
2022/04/17 06:25:34;;;;;;;6.07;5.50;;;6.70;91.50;;;;;;5113844;28;20292;-66
2022/04/17 06:28:01;;;;;;;8.10;5.78;;;6.80;90.80;;;;;;5113886;28;20644;-67
2022/04/17 06:30:28;;;;;;;6.60;6.00;;;6.90;90.20;;;;;;5113515;28;20213;-67
2022/04/17 06:32:55;;;;;;;5.78;5.13;;;7.10;90.90;;;;;;5113834;28;20228;-67
2022/04/17 06:35:22;;;;;;;6.35;5.55;;;7.10;90.10;;;;;;5113593;28;20210;-67
2022/04/17 06:37:50;;;;;;;6.80;5.55;;;7.20;89.00;;;;;;5113678;28;20233;-67
2022/04/17 06:40:19;;;;;;;5.40;4.90;;;7.30;88.90;;;;;;5113739;28;20202;-67
2022/04/17 06:42:48;;;;;;;5.68;5.28;;;7.30;86.30;;;;;;5113825;28;20226;-67
2022/04/17 06:45:15;;;;;;;4.95;4.50;;;7.40;86.50;;;;;;5113565;28;20233;-67
2022/04/17 06:47:42;;;;;;;5.70;5.20;;;7.50;85.90;;;;;;5113957;28;20202;-66
2022/04/17 06:50:10;;;;;;;5.68;5.18;;;7.60;86.40;;;;;;5116973;28;20606;-66
2022/04/17 06:52:36;;;;;;;5.57;5.07;;;7.60;85.70;;;;;;5117298;28;20221;-67
2022/04/17 06:55:05;;;;;;;5.35;4.85;;;7.80;83.80;;;;;;5117497;28;20289;-66
2022/04/17 06:57:34;;;;;;;5.18;4.68;;;7.90;82.70;;;;;;5117521;28;20255;-67
2022/04/17 07:00:05;;;;;;;5.75;4.70;;;8.00;83.20;;;;;;5117323;28;20198;-66
2022/04/17 07:02:32;;;;;;;5.65;5.15;;;8.10;82.90;;;;;;5117291;28;20703;-67
2022/04/17 07:04:58;;;;;;;5.30;4.80;;;8.20;82.20;;;;;;5117138;27;20197;-67
2022/04/17 07:07:25;;;;;;;5.07;4.68;;;8.30;81.10;;;;;;5117307;28;20202;-66
2022/04/17 07:09:52;;;;;;;4.80;4.40;;;8.30;80.50;;;;;;5117338;28;20289;-66
2022/04/17 07:12:19;;;;;;;5.10;4.65;;;8.30;79.20;;;;;;5117237;28;20228;-67
2022/04/17 07:14:47;;;;;;;6.97;5.05;;;8.40;78.10;;;;;;5116955;28;20206;-67
2022/04/17 07:17:14;;;;;;;5.38;4.88;;;8.50;78.00;;;;;;5116996;28;20667;-68
2022/04/17 07:19:41;;;;;;;5.10;4.70;;;8.60;77.40;;;;;;5116952;28;20771;-66
2022/04/17 07:22:08;;;;;;;5.15;4.50;;;8.60;76.20;;;;;;5117005;28;20221;-67
2022/04/17 07:24:35;;;;;;;5.10;4.50;;;8.70;77.00;;;;;;5116705;28;20208;-67
2022/04/17 07:27:01;;;;;;;5.60;5.10;;;8.80;76.50;;;;;;5116918;28;20631;-67
2022/04/17 07:29:28;;;;;;;5.88;5.30;;;8.90;75.80;;;;;;5116618;28;20215;-67
2022/04/17 07:31:56;;;;;;;5.00;4.50;;;9.00;75.70;;;;;;5116681;28;20222;-67
2022/04/17 07:34:23;;;;;;;4.60;4.20;;;9.10;75.00;;;;;;5116300;28;20212;-66
2022/04/17 07:36:52;;;;;;;4.57;4.18;;;9.10;74.80;;;;;;5116530;28;20215;-67
2022/04/17 07:39:19;;;;;;;5.00;4.60;;;9.20;74.60;;;;;;5116617;28;20218;-67
2022/04/17 07:41:47;;;;;;;4.82;4.43;;;9.20;73.10;;;;;;5116568;28;20308;-66
2022/04/17 07:44:13;;;;;;;4.57;4.18;;;9.30;74.20;;;;;;5116467;28;20201;-67
2022/04/17 07:46:41;;;;;;;6.22;4.57;;;9.40;75.30;;;;;;5116426;28;20206;-67
2022/04/17 07:49:09;;;;;;;4.40;4.00;;;9.40;73.60;;;;;;5116247;28;20205;-66
2022/04/17 07:51:37;;;;;;;4.55;4.15;;;9.60;72.50;;;;;;5116412;28;20217;-69
2022/04/17 07:54:04;;;;;;;4.53;4.10;;;9.70;70.10;;;;;;5116522;28;20197;-66
2022/04/17 07:56:31;;;;;;;4.70;4.30;;;9.80;70.90;;;;;;5116342;28;20207;-66
2022/04/17 07:58:58;;;;;;;4.30;3.90;;;9.90;69.10;;;;;;5115894;28;20255;-67
2022/04/17 08:01:24;;;;;;;4.70;4.30;;;10.00;68.10;;;;;;5115284;27;20323;-66
2022/04/17 08:03:51;;;;;;;3.88;3.58;;;10.10;68.90;;;;;;5116078;28;20205;-66
2022/04/17 08:06:21;;;;;;;4.60;4.20;;;10.10;66.90;;;;;;5116134;28;20205;-69
2022/04/17 08:08:51;;;;;;;4.35;4.00;;;10.20;66.80;;;;;;5116105;28;20229;-68
2022/04/17 08:11:19;;;;;;;4.10;3.80;;;10.40;67.70;;;;;;5116230;28;20225;-68
2022/04/17 08:13:46;;;;;;;4.13;3.72;;;10.60;66.10;;;;;;5115747;28;20214;-66
2022/04/17 08:16:14;;;;;;;4.43;3.92;;;10.90;64.80;;;;;;5115945;28;20201;-67
2022/04/17 08:18:41;;;;;;;3.83;3.53;;;10.90;62.50;;;;;;5115849;28;20583;-67
2022/04/17 08:21:08;;;;;;;4.15;3.78;;;11.00;62.00;;;;;;5115619;28;20202;-68
2022/04/17 08:23:37;;;;;;;4.43;4.10;;;11.00;62.50;;;;;;5115723;28;20205;-67
2022/04/17 08:26:05;;;;;;;5.30;3.75;;;11.00;62.00;;;;;;5115765;28;20205;-67
2022/04/17 08:28:31;;;;;;;3.90;3.60;;;11.10;62.60;;;;;;5115262;28;20198;-67
2022/04/17 08:30:58;;;;;;;3.92;3.50;;;11.10;61.00;;;;;;5115628;28;20296;-67
2022/04/17 08:33:26;;;;;;;4.00;3.70;;;11.20;62.20;;;;;;5115520;28;20198;-67
2022/04/17 08:35:53;;;;;;;4.45;4.05;;;11.20;63.10;;;;;;5115568;28;20628;-67
2022/04/17 08:38:21;;;;;;;4.50;4.05;;;11.30;60.40;;;;;;5115295;28;20206;-67
2022/04/17 08:40:50;;;;;;;3.95;3.65;;;11.40;62.60;;;;;;5115365;28;20296;-67
2022/04/17 08:43:21;;;;;;;4.32;3.95;;;11.40;62.60;;;;;;5115402;28;20218;-67
2022/04/17 08:45:50;;;;;;;4.20;3.78;;;11.50;59.50;;;;;;5115308;28;20217;-66
2022/04/17 08:48:17;;;;;;;4.03;3.55;;;11.60;59.30;;;;;;5115318;28;20244;-67
2022/04/17 08:50:45;;;;;;;4.47;4.13;;;11.70;61.10;;;;;;5115246;28;20250;-67
2022/04/17 08:53:16;;;;;;;4.10;3.80;;;11.90;59.80;;;;;;5114914;28;20228;-67
2022/04/17 08:55:44;;;;;;;4.65;4.15;;;12.30;61.00;;;;;;5114949;27;20678;-67
2022/04/17 08:58:13;;;;;;;4.50;4.10;;;12.60;59.70;;;;;;5115099;28;20202;-67
2022/04/17 09:00:40;;;;;;;4.10;3.80;;;13.50;59.70;;;;;;5115080;28;20258;-67
2022/04/17 09:03:08;;;;;;;3.58;3.28;;;14.20;56.40;;;;;;5114816;28;20225;-67
2022/04/17 09:05:37;;;;;;;3.67;3.30;;;15.30;53.70;;;;;;5114945;28;20225;-67
2022/04/17 09:08:14;;;;;;;3.95;3.55;;;15.50;52.10;;;;;;5114646;28;20211;-67
2022/04/17 09:10:41;;;;;;;3.80;3.50;;;15.40;52.00;;;;;;5114952;28;20199;-67
2022/04/17 09:13:08;;;;;;;3.95;3.58;;;15.40;52.30;;;;;;5114127;28;20224;-67
2022/04/17 09:15:37;;;;;;;3.58;3.28;;;16.00;50.50;;;;;;5114745;28;20197;-67
2022/04/17 09:18:07;;;;;;;3.35;3.10;;;17.10;48.50;;;;;;5114703;28;20197;-67
2022/04/17 09:20:34;;;;;;;3.90;3.60;;;18.10;46.50;;;;;;5115056;28;20232;-67
2022/04/17 09:23:02;;;;;;;2.85;2.65;;;18.50;44.10;;;;;;5114445;28;20225;-68
2022/04/17 09:25:29;;;;;;;3.30;3.10;;;18.60;42.60;;;;;;5114615;28;20216;-67
2022/04/17 09:28:01;;;;;;;3.00;2.80;;;19.20;43.10;;;;;;5114588;28;20219;-67
2022/04/17 09:30:30;;;;;;;3.80;3.50;;;20.00;41.70;;;;;;5114429;28;20458;-67
2022/04/17 09:33:03;;;;;;;3.60;3.40;;;21.30;39.50;;;;;;5114387;28;20550;-68
2022/04/17 09:35:29;;;;;;;3.53;3.23;;;22.70;39.20;;;;;;5114350;28;20450;-68
2022/04/17 09:37:58;;;;;;;3.80;3.50;;;22.50;36.50;;;;;;5114345;28;20512;-68
2022/04/17 09:40:26;;;;;;;3.20;3.00;;;23.40;36.40;;;;;;5114285;28;20570;-68
2022/04/17 09:43:08;;;;;;;3.90;3.60;;;25.00;34.50;;;;;;5114542;28;20550;-68
2022/04/17 09:45:35;;;;;;;2.93;2.73;;;26.90;32.10;;;;;;5114258;28;20447;-68
2022/04/17 09:48:04;;;;;;;3.20;3.00;;;;;;;;;;5114232;28;20447;-68
2022/04/17 09:50:32;;;;;;;3.40;3.20;;;29.10;27.70;;;;;;5114212;28;20521;-68
2022/04/17 09:53:03;;;;;;;3.07;2.87;;;30.00;27.10;;;;;;5114036;28;20817;-69
2022/04/17 09:55:31;;;;;;;3.57;3.37;;;31.20;26.00;;;;;;5114368;28;20597;-68
2022/04/17 09:57:59;;;;;;;3.40;3.20;;;30.90;25.50;;;;;;5114331;28;20455;-69
2022/04/17 10:00:27;;;;;;;4.10;3.80;;;30.70;25.90;;;;;;5114096;28;20829;-68
2022/04/17 10:02:54;;;;;;;3.60;3.30;;;29.90;25.10;;;;;;5114080;28;20466;-68
2022/04/17 10:05:22;;;;;;;3.67;3.37;;;29.40;26.00;;;;;;5113897;28;20435;-69
2022/04/17 10:07:50;;;;;;;3.07;2.90;;;30.10;25.60;;;;;;5113927;28;20443;-69
2022/04/17 10:10:18;;;;;;;3.63;3.43;;;30.70;25.30;;;;;;5113877;28;20561;-69
2022/04/17 10:12:46;;;;;;;3.60;3.37;;;30.90;25.20;;;;;;5113997;28;20459;-69
2022/04/17 10:15:13;;;;;;;3.60;3.30;;;31.80;24.70;;;;;;5113808;28;20440;-69
2022/04/17 10:17:42;;;;;;;3.20;3.00;;;32.30;24.70;;;;;;5113877;28;20448;-69
2022/04/17 10:20:12;;;;;;;2.80;2.60;;;30.70;24.30;;;;;;5113940;28;20435;-69
2022/04/17 10:22:43;;;;;;;2.63;2.53;;;30.40;25.00;;;;;;5113852;28;20467;-69
2022/04/17 10:25:11;;;;;;;3.33;2.50;;;30.50;24.40;;;;;;5117298;28;20842;-69
2022/04/17 10:27:42;;;;;;;3.57;2.60;;;27.90;25.90;;;;;;5118057;28;20449;-68
2022/04/17 10:30:13;;;;;;;2.80;2.60;;;27.40;26.90;;;;;;5117686;28;20475;-69
2022/04/17 10:33:17;;;;;;;2.77;2.57;;;27.40;26.90;;;;;;5117939;27;20469;-69
2022/04/17 10:36:13;;;;;;;3.03;2.83;;;27.60;26.70;;;;;;5117975;28;20435;-68
2022/04/17 10:38:57;;;;;;;2.77;2.57;;;26.70;26.70;;;;;;5117893;28;20526;-68
2022/04/17 10:41:24;;;;;;;2.53;2.33;;;24.20;28.30;;;;;;5117689;28;20469;-68
2022/04/17 10:43:57;;;;;;;2.80;2.60;;;24.10;28.70;;;;;;5117671;28;20911;-69
2022/04/17 10:46:25;;;;;;;2.60;2.40;;;23.60;29.60;;;;;;5117972;28;20439;-68
2022/04/17 10:48:54;;;;;;;2.80;2.60;;;25.10;29.50;;;;;;5117650;28;20443;-68
2022/04/17 10:51:23;;;;;;;2.97;2.77;;;26.50;28.40;;;;;;5117458;28;20467;-68
2022/04/17 10:54:04;;;;;;;2.60;2.40;;;27.80;27.00;;;;;;5117371;28;20928;-69
2022/04/17 10:56:33;;;;;;;2.67;2.47;;;28.60;25.60;;;;;;5117466;28;20844;-68
2022/04/17 10:59:03;;;;;;;2.33;2.23;;;27.80;25.50;;;;;;5117409;28;20448;-68
2022/04/17 11:01:55;;;;;;;2.40;2.20;;;27.30;26.10;;;;;;5117438;27;20470;-68
2022/04/17 11:04:26;;;;;;;2.30;2.00;;;26.90;25.70;;;;;;5117200;28;20439;-68
2022/04/17 11:06:56;;;;;;;3.10;2.70;;;27.00;26.50;;;;;;5117398;28;20836;-68
2022/04/17 11:09:25;;;;;;;2.67;2.47;;;27.50;26.00;;;;;;5116961;28;20470;-69
2022/04/17 11:11:52;;;;;;;2.47;2.27;;;27.20;26.40;;;;;;5117045;28;20549;-68
2022/04/17 11:14:22;;;;;;;2.67;2.47;;;26.80;25.90;;;;;;5117049;28;20449;-68
2022/04/17 11:16:53;;;;;;;2.27;2.10;;;26.90;26.20;;;;;;5116872;28;20947;-69
2022/04/17 11:19:22;;;;;;;3.00;2.80;;;27.10;26.20;;;;;;5117070;28;20442;-68
2022/04/17 11:21:51;;;;;;;2.43;2.33;;;27.40;26.50;;;;;;5117265;28;20464;-68
2022/04/17 11:24:19;;;;;;;2.23;2.13;;;27.30;26.60;;;;;;5116868;28;20782;-69
2022/04/17 11:27:10;;;;;;;2.83;2.50;;;27.10;26.30;;;;;;5116920;28;20846;-68
2022/04/17 11:29:39;;;;;;;2.33;2.20;;;26.50;26.30;;;;;;5116574;28;21021;-68
2022/04/17 11:32:43;;;;;;;2.57;2.40;;;25.30;27.50;;;;;;5116471;28;20467;-68
2022/04/17 11:35:11;;;;;;;2.20;2.10;;;24.60;28.10;;;;;;5116558;27;20437;-68
2022/04/17 11:37:39;;;;;;;2.40;2.20;;;23.90;28.20;;;;;;5116594;28;20445;-69
2022/04/17 11:40:11;;;;;;;2.73;2.50;;;22.90;28.80;;;;;;5116877;27;20534;-68
2022/04/17 11:42:44;;;;;;;2.60;2.40;;;21.80;29.80;;;;;;5116613;28;20497;-68
2022/04/17 11:45:12;;;;;;;2.80;2.60;;;21.10;31.70;;;;;;5116455;28;20442;-68
2022/04/17 11:47:40;;;;;;;2.40;2.23;;;20.90;31.90;;;;;;5116512;28;20527;-68
2022/04/17 11:50:09;;;;;;;2.40;2.20;;;20.60;30.60;;;;;;5116610;28;20504;-68
2022/04/17 11:52:36;;;;;;;3.67;2.40;;;20.50;31.30;;;;;;5116168;28;20820;-68
2022/04/17 11:55:04;;;;;;;2.53;2.33;;;20.20;31.70;;;;;;5116476;27;20473;-68
2022/04/17 11:57:32;;;;;;;3.07;2.87;;;20.00;32.40;;;;;;5116256;28;20441;-68
2022/04/17 12:00:01;;;;;;;2.67;2.47;;;19.60;32.50;;;;;;5116221;28;20439;-68
2022/04/17 12:02:29;;;;;;;2.70;2.45;;;19.10;33.50;;;;;;5116162;28;20229;-68
2022/04/17 12:04:57;;;;;;;2.58;2.38;;;19.00;34.50;;;;;;5115738;28;20702;-68
2022/04/17 12:07:25;;;;;;;2.47;2.30;;;18.60;33.70;;;;;;5116141;28;20208;-68
2022/04/17 12:10:04;;;;;;;2.50;2.30;;;18.50;35.10;;;;;;5116049;28;20217;-68
2022/04/17 12:12:34;;;;;;;2.90;2.70;;;18.30;34.90;;;;;;5116387;28;20232;-68
2022/04/17 12:15:04;;;;;;;4.35;2.60;;;17.90;35.10;;;;;;5115888;28;20206;-67
2022/04/17 12:17:32;;;;;;;3.83;2.95;;;18.00;35.60;;;;;;5115909;28;20757;-68
2022/04/17 12:19:59;;;;;;;2.78;2.58;;;18.20;36.10;;;;;;5115913;28;20201;-67
2022/04/17 12:22:26;;;;;;;2.90;2.70;;;18.20;36.00;;;;;;5115882;28;20313;-67
2022/04/17 12:24:53;;;;;;;2.78;2.58;;;18.40;36.20;;;;;;5115694;28;20213;-68
2022/04/17 12:27:22;;;;;;;2.70;2.50;;;18.50;35.40;;;;;;5115791;28;20201;-67
2022/04/17 12:29:49;;;;;;;3.03;2.55;;;18.50;35.30;;;;;;5115271;28;20228;-67
2022/04/17 12:32:20;;;;;;;2.92;2.72;;;18.30;34.90;;;;;;5115907;28;20226;-68
2022/04/17 12:34:47;;;;;;;4.32;2.67;;;18.20;35.70;;;;;;5115501;28;20227;-68
2022/04/17 12:37:21;;;;;;;2.40;2.20;;;18.40;36.00;;;;;;5115629;28;20583;-68
2022/04/17 12:39:48;;;;;;;2.40;2.30;;;18.50;36.20;;;;;;5115558;27;20234;-67
2022/04/17 12:42:19;;;;;;;2.90;2.70;;;18.60;36.20;;;;;;5115392;28;20252;-67
2022/04/17 12:44:47;;;;;;;2.83;2.63;;;18.70;35.90;;;;;;5114966;28;20740;-68
2022/04/17 12:47:15;;;;;;;4.10;2.60;;;18.80;36.10;;;;;;5114653;28;20754;-68
2022/04/17 12:49:43;;;;;;;3.35;3.08;;;18.80;35.70;;;;;;5115331;28;20659;-68
2022/04/17 12:52:21;;;;;;;2.10;1.90;;;18.50;36.20;;;;;;5115013;28;20247;-67
2022/04/17 12:54:48;;;;;;;2.38;2.17;;;18.30;35.80;;;;;;5114796;28;20666;-67
2022/04/17 12:57:21;;;;;;;2.42;2.10;;;18.50;36.00;;;;;;5115101;28;20204;-68
2022/04/17 12:59:49;;;;;;;1.90;1.80;;;18.60;33.40;;;;;;5115174;28;20311;-68
2022/04/17 13:02:18;;;;;;;2.15;2.05;;;18.60;33.40;;;;;;5115061;28;20224;-68
2022/04/17 13:04:48;;;;;;;2.20;2.10;;;18.70;33.80;;;;;;5114869;27;20205;-68
2022/04/17 13:07:16;;;;;;;1.90;1.80;;;18.80;34.60;;;;;;5114891;28;20209;-68
2022/04/17 13:09:51;;;;;;;4.38;2.10;;;18.80;34.40;;;;;;5114558;28;20198;-67